Time;durP1;ratioP1;P1;durP2;ratioP2;P2;SDS_P1;SDS_P2;PMS_P1;PMS_P2;Temp;Humidity;BMP_temperature;BMP_pressure;BME280_temperature;BME280_humidity;BME280_pressure;Samples;Min_cycle;Max_cycle;Signal;HPM_P1;HPM_P2
2021/04/18 00:01:48;;;;;;;20.40;12.43;;;;;;;;;;5036769;28;20388;-81
2021/04/18 00:04:14;;;;;;;19.73;13.13;;;;;;;;;;5034908;28;20374;-81
2021/04/18 00:06:40;;;;;;;19.33;13.13;;;;;;;;;;5030569;28;20860;-81
2021/04/18 00:09:13;;;;;;;17.90;12.98;;;;;;;;;;5032496;28;20362;-81
2021/04/18 00:11:42;;;;;;;23.05;13.88;;;;;;;;;;5050749;28;20393;-81
2021/04/18 00:14:09;;;;;;;17.45;12.82;;;;;;;;;;5033569;28;20362;-81
2021/04/18 00:16:35;;;;;;;17.42;12.98;;;;;;;;;;5033123;28;20369;-81
2021/04/18 00:19:01;;;;;;;16.42;12.25;;;;;;;;;;5032801;28;20488;-82
2021/04/18 00:21:27;;;;;;;20.42;13.98;;;;;;;;;;5032919;28;20376;-81
2021/04/18 00:23:53;;;;;;;21.23;14.98;;;;;;;;;;5032888;28;20372;-81
2021/04/18 00:26:19;;;;;;;19.67;13.13;;;;;;;;;;5032939;28;20369;-81
2021/04/18 00:28:45;;;;;;;17.80;12.85;;;;;;;;;;5032575;28;20374;-80
2021/04/18 00:31:11;;;;;;;17.58;12.63;;;;;;;;;;5032881;28;20365;-81
2021/04/18 00:33:37;;;;;;;13.80;11.40;;;;;;;;;;5033233;28;20385;-80
2021/04/18 00:36:04;;;;;;;20.63;12.95;;;;;;;;;;5032638;28;20374;-81
2021/04/18 00:38:30;;;;;;;14.98;12.32;;;;;;;;;;5047861;28;20752;-80
2021/04/18 00:40:56;;;;;;;16.95;13.30;;;;;;;;;;5032172;28;20365;-81
2021/04/18 00:43:22;;;;;;;16.48;12.02;;;;;;;;;;5032151;28;20373;-80
2021/04/18 00:45:48;;;;;;;16.08;12.35;;;;;;;;;;5032621;28;20456;-81
2021/04/18 00:48:14;;;;;;;17.90;12.75;;;;;;;;;;5047211;28;20431;-81
2021/04/18 00:50:40;;;;;;;17.23;12.60;;;;;;;;;;5031416;28;20889;-81
2021/04/18 00:53:07;;;;;;;20.20;11.45;;;;;;;;;;5031272;28;20385;-81
2021/04/18 00:55:35;;;;;;;15.18;11.18;;;;;;;;;;5030753;28;20893;-81
2021/04/18 00:58:01;;;;;;;12.07;10.80;;;;;;;;;;5031157;28;20413;-81
2021/04/18 01:00:28;;;;;;;12.45;9.70;;;;;;;;;;5031905;28;20397;-81
2021/04/18 01:02:54;;;;;;;11.18;9.73;;;;;;;;;;5030985;28;20452;-81
2021/04/18 01:05:21;;;;;;;12.90;9.85;;;;;;;;;;5030801;28;20731;-81
2021/04/18 01:07:47;;;;;;;13.50;10.93;;;;;;;;;;5031948;28;20361;-81
2021/04/18 01:10:15;;;;;;;14.95;10.77;;;;;;;;;;5032109;28;20438;-80
2021/04/18 01:12:41;;;;;;;17.13;12.63;;;;;;;;;;5031019;28;20840;-80
2021/04/18 01:15:08;;;;;;;18.63;13.27;;;;;;;;;;5031698;28;20515;-81
2021/04/18 01:17:34;;;;;;;20.80;11.13;;;;;;;;;;5047326;28;20829;-80
2021/04/18 01:20:00;;;;;;;12.52;10.18;;;;;;;;;;5031654;28;20915;-81
2021/04/18 01:22:26;;;;;;;11.40;10.00;;;;;;;;;;5031924;28;20500;-81
2021/04/18 01:24:52;;;;;;;12.13;10.20;;;;;;;;;;5031696;28;20752;-81
2021/04/18 01:27:20;;;;;;;13.50;10.23;;;;;;;;;;5046598;28;20379;-81
2021/04/18 01:29:46;;;;;;;11.40;10.10;;;;;;;;;;5031127;28;20503;-81
2021/04/18 01:32:12;;;;;;;17.55;13.07;;;;;;;;;;5031491;28;20407;-81
2021/04/18 01:34:42;;;;;;;13.98;10.23;;;;;;;;;;5031404;28;20511;-80
2021/04/18 01:37:08;;;;;;;16.65;11.40;;;;;;;;;;5030824;28;20895;-80
2021/04/18 01:39:34;;;;;;;11.73;9.73;;;;;;;;;;5046623;28;20772;-81
2021/04/18 01:42:01;;;;;;;18.70;13.00;;;;;;;;;;5031045;28;20728;-80
2021/04/18 01:44:27;;;;;;;24.58;13.43;;;;;;;;;;5031089;28;20372;-81
2021/04/18 01:46:53;;;;;;;15.77;12.85;;;;;;;;;;5031126;28;20374;-81
2021/04/18 01:49:19;;;;;;;18.95;13.10;;;;;;;;;;5030844;28;20464;-81
2021/04/18 01:51:45;;;;;;;16.93;13.17;;;;;;;;;;5031409;28;20879;-81
2021/04/18 01:54:11;;;;;;;19.73;13.25;;;;;;;;;;5031221;28;20860;-81
2021/04/18 01:56:37;;;;;;;19.25;13.57;;;;;;;;;;5031421;28;20476;-81
2021/04/18 01:59:03;;;;;;;23.50;15.48;;;;;;;;;;5047121;28;20400;-80
2021/04/18 02:01:29;;;;;;;23.70;16.60;;;;;;;;;;5031575;28;20372;-80
2021/04/18 02:03:55;;;;;;;20.67;15.80;;;;;;;;;;5031184;28;20378;-81
2021/04/18 02:06:21;;;;;;;19.48;15.05;;;;;;;;;;5040220;28;20405;-80
2021/04/18 02:08:47;;;;;;;22.08;14.23;;;;;;;;;;5046725;28;20374;-81
2021/04/18 02:11:13;;;;;;;20.00;14.50;;;;;;;;;;5031134;28;20396;-81
2021/04/18 02:13:39;;;;;;;22.45;13.80;;;;;;;;;;5046617;28;20435;-81
2021/04/18 02:16:05;;;;;;;15.57;11.32;;;;;;;;;;5031551;28;20377;-81
2021/04/18 02:18:31;;;;;;;14.30;10.50;;;;;;;;;;5030652;28;20389;-80
2021/04/18 02:20:57;;;;;;;10.87;9.63;;;;;;;;;;5030430;28;20776;-81
2021/04/18 02:23:23;;;;;;;14.00;10.73;;;;;;;;;;5032346;28;20369;-80
2021/04/18 02:25:49;;;;;;;18.90;11.90;;;;;;;;;;5039910;28;20361;-81
2021/04/18 02:28:15;;;;;;;16.75;11.30;;;;;;;;;;5035234;28;20369;-80
2021/04/18 02:30:41;;;;;;;16.10;11.18;;;;;;;;;;5034906;28;20369;-81
2021/04/18 02:33:07;;;;;;;24.90;17.23;;;;;;;;;;5034694;28;20705;-80
2021/04/18 02:35:33;;;;;;;16.20;12.68;;;;;;;;;;5034430;28;20373;-80
2021/04/18 02:37:59;;;;;;;20.43;15.93;;;;;;;;;;5033883;28;20396;-81
2021/04/18 02:40:25;;;;;;;21.02;14.50;;;;;;;;;;5034280;28;20400;-81
2021/04/18 02:42:51;;;;;;;17.30;12.93;;;;;;;;;;5034412;28;20366;-81
2021/04/18 02:45:17;;;;;;;17.35;13.60;;;;;;;;;;5034178;28;20389;-80
2021/04/18 02:47:43;;;;;;;19.27;13.80;;;;;;;;;;5049508;28;20401;-81
2021/04/18 02:50:10;;;;;;;21.27;14.90;;;;;;;;;;5033911;28;20365;-80
2021/04/18 02:52:36;;;;;;;19.08;13.75;;;;;;;;;;5034432;28;20377;-81
2021/04/18 02:55:02;;;;;;;17.60;13.32;;;;;;;;;;5049141;28;20432;-80
2021/04/18 02:57:28;;;;;;;21.00;14.47;;;;;;;;;;5033971;28;20377;-81
2021/04/18 02:59:54;;;;;;;18.60;13.45;;;;;;;;;;5049158;28;20894;-81
2021/04/18 03:02:20;;;;;;;16.05;12.73;;;;;;;;;;5034125;28;20362;-81
2021/04/18 03:04:47;;;;;;;19.70;14.48;;;;;;;;;;5034127;28;20365;-81
2021/04/18 03:07:13;;;;;;;16.50;13.27;;;;;;;;;;5049501;28;20740;-81
2021/04/18 03:09:39;;;;;;;23.95;15.15;;;;;;;;;;5034191;28;20493;-81
2021/04/18 03:12:05;;;;;;;21.52;15.15;;;;;;;;;;5033980;28;20388;-81
2021/04/18 03:14:31;;;;;;;22.45;15.60;;;;;;;;;;5034128;28;20377;-81
2021/04/18 03:16:57;;;;;;;21.48;16.10;;;;;;;;;;5033732;28;20373;-81
2021/04/18 03:19:23;;;;;;;20.98;16.05;;;;;;;;;;5048991;28;20896;-81
2021/04/18 03:21:49;;;;;;;18.13;15.45;;;;;;;;;;5033469;28;20369;-80
2021/04/18 03:24:15;;;;;;;20.95;15.02;;;;;;;;;;5048619;28;20370;-80
2021/04/18 03:26:41;;;;;;;21.27;15.95;;;;;;;;;;5033327;28;20373;-81
2021/04/18 03:29:07;;;;;;;24.40;16.50;;;;;;;;;;5034465;28;20377;-81
2021/04/18 03:31:33;;;;;;;20.40;16.40;;;;;;;;;;5051273;28;20369;-81
2021/04/18 03:33:59;;;;;;;25.15;18.17;;;;;;;;;;5051173;28;20934;-81
2021/04/18 03:36:25;;;;;;;21.63;17.15;;;;;;;;;;5050544;28;20385;-81
2021/04/18 03:38:51;;;;;;;25.13;18.02;;;;;;;;;;5033797;28;20443;-81
2021/04/18 03:41:17;;;;;;;27.63;18.60;;;;;;;;;;5049053;28;20742;-81
2021/04/18 03:43:43;;;;;;;24.30;17.53;;;;;;;;;;5033569;28;20362;-81
2021/04/18 03:46:09;;;;;;;23.33;16.70;;;;;;;;;;5033697;28;20747;-81
2021/04/18 03:48:35;;;;;;;32.75;21.73;;;;;;;;;;5033412;28;20365;-81
2021/04/18 03:51:01;;;;;;;28.38;21.65;;;;;;;;;;5033136;28;20373;-81
2021/04/18 03:53:27;;;;;;;39.17;25.92;;;;;;;;;;5033118;28;20811;-81
2021/04/18 03:55:53;;;;;;;36.92;24.85;;;;;;;;;;5033087;28;20381;-81
2021/04/18 03:58:19;;;;;;;42.00;28.60;;;;;;;;;;5032942;28;20420;-81
2021/04/18 04:00:45;;;;;;;40.85;27.33;;;;;;;;;;5033056;28;20918;-81
2021/04/18 04:03:10;;;;;;;42.38;29.63;;;;;;;;;;5032803;28;20739;-81
2021/04/18 04:05:36;;;;;;;45.00;30.47;;;;;;;;;;5032787;28;20397;-81
2021/04/18 04:08:05;;;;;;;43.63;31.90;;;;;;;;;;5032933;28;20385;-81
2021/04/18 04:10:31;;;;;;;41.75;28.52;;;;;;;;;;5032820;28;20452;-81
2021/04/18 04:12:57;;;;;;;44.80;31.65;;;;;;;;;;5032923;28;20377;-81
2021/04/18 04:15:23;;;;;;;48.38;32.03;;;;;;;;;;5033172;28;20381;-81
2021/04/18 04:17:49;;;;;;;51.17;33.15;;;;;;;;;;5032531;28;20409;-81
2021/04/18 04:20:15;;;;;;;48.28;34.53;;;;;;;;;;5032430;28;20869;-81
2021/04/18 04:22:43;;;;;;;56.75;37.15;;;;;;;;;;5032351;28;20419;-80
2021/04/18 04:25:09;;;;;;;61.10;41.20;;;;;;;;;;5032176;28;20919;-81
2021/04/18 04:27:35;;;;;;;61.05;40.65;;;;;;;;;;5031992;28;20369;-81
2021/04/18 04:30:01;;;;;;;67.60;43.03;;;;;;;;;;5031998;28;20370;-81
2021/04/18 04:32:29;;;;;;;65.40;45.33;;;;;;;;;;5047427;28;20376;-81
2021/04/18 04:34:55;;;;;;;70.72;45.83;;;;;;;;;;5031945;28;20380;-80
2021/04/18 04:37:21;;;;;;;76.80;47.13;;;;;;;;;;5047309;28;20369;-81
2021/04/18 04:39:47;;;;;;;68.47;45.28;;;;;;;;;;5031772;28;20396;-81
2021/04/18 04:42:13;;;;;;;65.20;43.20;;;;;;;;;;5031575;28;20432;-81
2021/04/18 04:44:39;;;;;;;63.42;43.17;;;;;;;;;;5031727;28;20396;-81
2021/04/18 04:47:05;;;;;;;73.50;45.47;;;;;;;;;;5030722;28;20393;-81
2021/04/18 04:49:31;;;;;;;75.93;46.42;;;;;;;;;;5031490;28;20374;-81
2021/04/18 04:51:57;;;;;;;73.28;44.83;;;;;;;;;;5031993;28;20365;-81
2021/04/18 04:54:23;;;;;;;66.20;44.22;;;;;;;;;;5047116;28;20776;-81
2021/04/18 04:56:49;;;;;;;77.45;47.63;;;;;;;;;;5047242;28;20386;-81
2021/04/18 04:59:15;;;;;;;71.45;45.45;;;;;;;;;;5047017;28;20394;-81
2021/04/18 05:01:42;;;;;;;70.53;46.33;;;;;;;;;;5032255;28;20492;-81
2021/04/18 05:04:08;;;;;;;67.85;45.13;;;;;;;;;;5032042;28;20709;-81
2021/04/18 05:06:34;;;;;;;69.13;44.30;;;;;;;;;;5032020;28;20368;-80
2021/04/18 05:09:00;;;;;;;68.05;43.65;;;;;;;;;;5047143;28;20393;-81
2021/04/18 05:11:26;;;;;;;71.50;43.08;;;;;;;;;;5031952;28;20392;-81
2021/04/18 05:13:52;;;;;;;67.47;44.27;;;;;;;;;;5031935;28;20369;-80
2021/04/18 05:16:18;;;;;;;66.68;44.35;;;;;;;;;;5031745;28;20365;-81
2021/04/18 05:18:44;;;;;;;64.68;43.58;;;;;;;;;;5031139;28;20389;-80
2021/04/18 05:21:11;;;;;;;64.43;44.28;;;;;;;;;;5046668;28;20786;-81
2021/04/18 05:23:37;;;;;;;55.22;40.33;;;;;;;;;;5031407;28;20413;-80
2021/04/18 05:26:03;;;;;;;55.60;42.20;;;;;;;;;;5031540;28;20820;-81
2021/04/18 05:28:29;;;;;;;64.63;42.03;;;;;;;;;;5031649;28;20377;-81
2021/04/18 05:30:56;;;;;;;65.87;43.90;;;;;;;;;;5031998;28;20402;-81
2021/04/18 05:33:22;;;;;;;64.60;42.67;;;;;;;;;;5047138;28;20482;-81
2021/04/18 05:35:48;;;;;;;64.82;43.25;;;;;;;;;;5031586;28;20729;-81
2021/04/18 05:38:14;;;;;;;69.25;45.20;;;;;;;;;;5031198;28;20462;-80
2021/04/18 05:40:40;;;;;;;57.93;42.17;;;;;;;;;;5031526;28;20767;-81
2021/04/18 05:43:06;;;;;;;67.80;43.83;;;;;;;;;;5031172;28;20464;-80
2021/04/18 05:45:32;;;;;;;61.53;42.33;;;;;;;;;;5031026;28;20376;-80
2021/04/18 05:47:58;;;;;;;57.45;43.03;;;;;;;;;;5030647;28;20381;-80
2021/04/18 05:50:24;;;;;;;63.60;42.40;;;;;;;;;;5030918;28;20432;-80
2021/04/18 05:52:50;;;;;;;65.70;41.72;;;;;;;;;;5031040;28;20377;-81
2021/04/18 05:55:16;;;;;;;66.32;44.50;;;;;;;;;;5046202;28;20373;-81
2021/04/18 05:57:42;;;;;;;60.10;41.30;;;;;;;;;;5030514;28;20886;-81
2021/04/18 06:00:08;;;;;;;57.13;39.33;;;;;;;;;;5030720;28;20381;-80
2021/04/18 06:02:34;;;;;;;67.88;42.72;;;;;;;;;;5030952;28;20408;-80
2021/04/18 06:05:00;;;;;;;70.53;44.80;;;;;;;;;;5031367;28;20377;-80
2021/04/18 06:07:26;;;;;;;67.25;43.60;;;;;;;;;;5046586;28;20383;-81
2021/04/18 06:09:52;;;;;;;69.55;43.88;;;;;;;;;;5031392;28;20385;-81
2021/04/18 06:12:18;;;;;;;68.25;44.22;;;;;;;;;;5030946;28;20751;-81
2021/04/18 06:14:44;;;;;;;67.63;45.83;;;;;;;;;;5030526;28;20454;-80
2021/04/18 06:17:10;;;;;;;67.90;43.90;;;;;;;;;;5030645;28;20427;-80
2021/04/18 06:19:36;;;;;;;72.07;41.55;;;;;;;;;;5045787;28;20890;-80
2021/04/18 06:22:02;;;;;;;63.25;42.72;;;;;;;;;;5030753;28;20469;-81
2021/04/18 06:24:28;;;;;;;64.30;43.90;;;;;;;;;;5030474;28;20362;-81
2021/04/18 06:26:54;;;;;;;78.22;45.85;;;;;;;;;;5045817;28;20724;-81
2021/04/18 06:29:20;;;;;;;72.25;43.75;;;;;;;;;;5045860;28;20499;-80
2021/04/18 06:31:46;;;;;;;60.35;41.53;;;;;;;;;;5030450;28;20382;-80
2021/04/18 06:34:12;;;;;;;60.75;40.25;;;;;;;;;;5030455;28;20384;-80
2021/04/18 06:36:38;;;;;;;67.50;43.45;;;;;;;;;;5033019;28;20366;-81
2021/04/18 06:39:04;;;;;;;54.03;38.95;;;;;;;;;;5050547;28;20792;-80
2021/04/18 06:41:31;;;;;;;63.90;43.45;;;;;;;;;;5030673;28;20366;-81
2021/04/18 06:43:57;;;;;;;62.47;41.88;;;;;;;;;;5030662;28;20400;-81
2021/04/18 06:46:23;;;;;;;68.90;45.95;;;;;;;;;;5030628;28;20401;-80
2021/04/18 06:48:50;;;;;;;63.88;43.45;;;;;;;;;;5030540;28;20423;-80
2021/04/18 06:51:19;;;;;;;58.97;40.08;;;;;;;;;;5030279;28;20369;-81
2021/04/18 06:53:48;;;;;;;66.85;40.55;;;;;;;;;;5031492;28;20377;-81
2021/04/18 06:56:15;;;;;;;66.38;41.03;;;;;;;;;;5031358;28;20775;-80
2021/04/18 06:58:40;;;;;;;65.78;41.50;;;;;;;;;;5032168;28;20389;-80
2021/04/18 07:01:06;;;;;;;57.42;38.67;;;;;;;;;;5031809;28;20372;-80
2021/04/18 07:03:33;;;;;;;58.95;39.53;;;;;;;;;;5047121;28;20409;-80
2021/04/18 07:05:59;;;;;;;57.50;40.88;;;;;;;;;;5029675;28;20372;-81
2021/04/18 07:08:32;;;;;;;57.77;40.63;;;;;;;;;;5029595;28;20422;-80
2021/04/18 07:11:20;;;;;;;61.80;40.55;;;;;;;;;;5033467;28;20384;-80
2021/04/18 07:13:47;;;;;;;57.67;40.63;;;;;;;;;;5034938;28;20460;-81
2021/04/18 07:16:22;;;;;;;70.00;40.45;;;;;;;;;;5034996;28;20377;-80
2021/04/18 07:18:48;;;;;;;63.17;39.78;;;;;;;;;;5034196;28;20397;-80
2021/04/18 07:21:14;;;;;;;61.33;43.13;;;;;;;;;;5034329;28;20373;-80
2021/04/18 07:23:40;;;;;;;64.25;40.20;;;;;;;;;;5034573;28;20366;-79
2021/04/18 07:26:24;;;;;;;59.10;41.23;;;;;;;;;;5049708;28;20787;-80
2021/04/18 07:28:51;;;;;;;63.57;42.50;;;;;;;;;;5034143;28;20474;-80
2021/04/18 07:31:33;;;;;;;60.20;42.35;;;;;;;;;;5034586;28;20369;-80
2021/04/18 07:34:04;;;;;;;53.90;39.97;;;;;;;;;;5034286;28;20365;-80
2021/04/18 07:36:31;;;;;;;59.65;42.30;;;;;;;;;;5035058;28;20804;-80
2021/04/18 07:38:57;;;;;;;53.00;40.40;;;;;;;;;;5034338;28;20397;-81
2021/04/18 07:41:24;;;;;;;45.80;38.22;;;;;;;;;;5034659;28;20404;-80
2021/04/18 07:43:50;;;;;;;48.92;37.33;;;;;;;;;;5034138;28;20369;-80
2021/04/18 07:46:17;;;;;;;44.45;37.20;;;;;;;;;;5034598;28;20366;-81
2021/04/18 07:48:44;;;;;;;43.20;35.53;;;;;;;;;;5034488;28;20381;-80
2021/04/18 07:51:10;;;;;;;41.55;36.40;;;;;;;;;;5049316;28;20708;-80
2021/04/18 07:53:37;;;;;;;41.47;35.23;;;;;;;;;;5049998;28;20827;-80
2021/04/18 07:56:07;;;;;;;35.30;31.50;;;;;;;;;;5049399;28;20452;-80
2021/04/18 07:58:34;;;;;;;35.65;31.13;;;;;;;;;;5029096;28;20385;-81
2021/04/18 08:01:00;;;;;;;37.40;31.48;;;;;;;;;;5034168;28;20373;-81
2021/04/18 08:03:26;;;;;;;38.58;30.30;;;;;;;;;;5049592;28;20373;-84
2021/04/18 08:05:52;;;;;;;37.63;31.67;;;;;;;;;;5034249;28;20844;-81
2021/04/18 08:08:18;;;;;;;34.47;29.63;;;;;;;;;;5033838;28;20484;-80
2021/04/18 08:10:45;;;;;;;36.60;31.38;;;;;;;;;;5028279;28;20887;-82
2021/04/18 08:13:16;;;;;;;35.17;31.15;;;;;;;;;;5031909;28;20770;-80
2021/04/18 08:15:55;;;;;;;37.33;31.52;;;;;;;;;;5022786;28;20384;-80
2021/04/18 08:18:42;;;;;;;32.78;29.33;;;;;;;;;;5027505;28;20397;-81
2021/04/18 08:21:26;;;;;;;33.87;28.90;;;;;;;;;;5013032;28;20778;-81
2021/04/18 08:23:53;;;;;;;31.90;28.60;;;;;;;;;;5017776;28;20456;-81
2021/04/18 08:26:23;;;;;;;29.17;26.17;;;;;;;;;;5018605;28;20380;-84
2021/04/18 08:28:54;;;;;;;31.63;27.02;;;;;;;;;;5024072;28;20381;-79
2021/04/18 08:31:20;;;;;;;31.77;28.27;;;;;;;;;;5025135;28;20691;-80
2021/04/18 08:33:48;;;;;;;33.63;28.17;;;;;;;;;;5015248;28;20408;-80
2021/04/18 08:36:14;;;;;;;35.00;29.48;;;;;;;;;;5025204;28;20727;-82
2021/04/18 08:38:40;;;;;;;37.00;32.70;;;;;;;;;;5032397;28;20423;-80
2021/04/18 08:41:10;;;;;;;36.88;31.38;;;;;;;;;;5033046;28;20362;-80
2021/04/18 08:43:36;;;;;;;37.47;31.58;;;;;;;;;;5031162;28;20373;-79
2021/04/18 08:46:04;;;;;;;35.65;31.27;;;;;;;;;;5016699;28;20384;-80
2021/04/18 08:48:30;;;;;;;38.00;32.13;;;;;;;;;;5024042;28;20386;-80
2021/04/18 08:51:07;;;;;;;39.45;31.20;;;;;;;;;;5032470;28;20464;-80
2021/04/18 08:53:51;;;;;;;35.50;31.02;;;;;;;;;;5027862;28;20746;-80
2021/04/18 08:56:17;;;;;;;32.08;26.70;;;;;;;;;;5025520;28;20375;-80
2021/04/18 08:58:43;;;;;;;33.95;28.55;;;;;;;;;;5012067;28;20919;-80
2021/04/18 09:01:11;;;;;;;34.75;29.45;;;;;;;;;;5024869;28;20384;-80
2021/04/18 09:03:40;;;;;;;31.67;27.70;;;;;;;;;;5022517;28;20391;-80
2021/04/18 09:06:19;;;;;;;31.38;26.98;;;;;;;;;;5010913;28;20409;-80
2021/04/18 09:08:49;;;;;;;31.23;27.55;;;;;;;;;;5030172;28;20385;-81
2021/04/18 09:11:15;;;;;;;28.73;25.73;;;;;;;;;;5017883;28;20823;-80
2021/04/18 09:13:56;;;;;;;29.52;26.17;;;;;;;;;;5014364;28;20421;-80
2021/04/18 09:16:23;;;;;;;27.80;24.90;;;;;;;;;;5031417;28;20460;-80
2021/04/18 09:18:49;;;;;;;26.75;22.88;;;;;;;;;;5020754;28;20403;-80
2021/04/18 09:21:15;;;;;;;28.77;25.50;;;;;;;;;;5011652;28;20387;-80
2021/04/18 09:24:00;;;;;;;28.70;25.33;;;;;;;;;;5028859;28;20381;-80
2021/04/18 09:26:27;;;;;;;28.27;24.20;;;;;;;;;;5029052;28;20388;-80
2021/04/18 09:29:09;;;;;;;23.67;21.20;;;;;;;;;;5029605;28;20852;-81
2021/04/18 09:31:36;;;;;;;21.52;19.15;;;;;;;;;;5022906;28;20391;-82
2021/04/18 09:34:06;;;;;;;22.35;20.05;;;;;;;;;;5022429;28;20382;-82
2021/04/18 09:36:33;;;;;;;23.95;21.50;;;;;;;;;;5025450;28;20794;-81
2021/04/18 09:39:00;;;;;;;21.63;19.43;;;;;;;;;;5029721;28;20385;-80
2021/04/18 09:41:27;;;;;;;20.95;18.95;;;;;;;;;;5023094;28;21146;-81
2021/04/18 09:43:56;;;;;;;20.83;18.63;;;;;;;;;;5029414;28;20468;-81
2021/04/18 09:46:23;;;;;;;19.73;17.73;;;;;;;;;;5019905;28;20381;-80
2021/04/18 09:49:01;;;;;;;19.10;17.10;;;;;;;;;;5030923;28;20374;-80
2021/04/18 09:51:27;;;;;;;19.10;17.23;;;;;;;;;;5046540;28;20431;-81
2021/04/18 09:54:20;;;;;;;18.67;16.77;;;;;;;;;;5031120;28;20778;-81
2021/04/18 09:57:05;;;;;;;18.75;16.85;;;;;;;;;;5030722;28;20460;-80
2021/04/18 09:59:31;;;;;;;18.70;16.88;;;;;;;;;;5027788;28;20400;-82
2021/04/18 10:02:08;;;;;;;18.70;16.73;;;;;;;;;;5030487;28;20877;-81
2021/04/18 10:04:34;;;;;;;19.67;17.60;;;;;;;;;;5011284;28;20398;-81
2021/04/18 10:07:00;;;;;;;22.37;20.07;;;;;;;;;;5013455;28;20436;-80
2021/04/18 10:09:26;;;;;;;22.60;20.42;;;;;;;;;;5023381;28;20946;-79
2021/04/18 10:12:01;;;;;;;25.88;23.08;;;;;;;;;;5030001;28;20380;-84
2021/04/18 10:14:27;;;;;;;26.80;24.00;;;;;;;;;;5029139;28;20380;-83
2021/04/18 10:16:53;;;;;;;28.13;25.23;;;;;;;;;;5029603;28;20711;-84
2021/04/18 10:19:20;;;;;;;27.02;24.08;;;;;;;;;;5045056;28;20459;-81
2021/04/18 10:22:04;;;;;;;23.88;21.38;;;;;;;;;;5029654;28;20385;-82
2021/04/18 10:24:35;;;;;;;26.35;23.58;;;;;;;;;;5027250;28;20434;-80
2021/04/18 10:27:02;;;;;;;24.05;21.48;;;;;;;;;;5026630;28;20395;-83
2021/04/18 10:29:29;;;;;;;21.58;19.35;;;;;;;;;;5030116;28;20445;-84
2021/04/18 10:31:55;;;;;;;23.42;20.52;;;;;;;;;;5030206;28;20427;-82
2021/04/18 10:34:21;;;;;;;21.20;19.02;;;;;;;;;;5030122;28;20377;-83
2021/04/18 10:36:48;;;;;;;20.80;18.17;;;;;;;;;;5044433;28;20482;-84
2021/04/18 10:39:17;;;;;;;19.42;17.55;;;;;;;;;;5045519;28;20744;-82
2021/04/18 10:41:44;;;;;;;21.67;19.38;;;;;;;;;;5027878;28;20381;-82
2021/04/18 10:44:16;;;;;;;20.52;18.20;;;;;;;;;;5031113;28;20446;-81
2021/04/18 10:46:52;;;;;;;20.60;18.50;;;;;;;;;;5034822;28;20377;-81
2021/04/18 10:49:19;;;;;;;21.05;18.85;;;;;;;;;;5032095;28;20374;-85
2021/04/18 10:51:46;;;;;;;19.90;17.90;;;;;;;;;;5033100;28;20396;-81
2021/04/18 10:54:13;;;;;;;18.00;16.13;;;;;;;;;;5035789;28;20463;-83
2021/04/18 10:56:40;;;;;;;19.08;17.27;;;;;;;;;;5032295;28;20776;-78
2021/04/18 10:59:06;;;;;;;19.47;17.57;;;;;;;;;;5054253;28;20989;-81
2021/04/18 11:01:32;;;;;;;19.10;17.27;;;;;;;;;;5035017;28;20377;-81
2021/04/18 11:03:58;;;;;;;19.58;17.67;;;;;;;;;;5031212;28;20373;-83
2021/04/18 11:06:25;;;;;;;20.00;17.73;;;;;;;;;;5031868;28;20898;-82
2021/04/18 11:08:51;;;;;;;19.45;17.55;;;;;;;;;;5033610;28;20467;-87
2021/04/18 11:11:18;;;;;;;18.33;16.47;;;;;;;;;;5034074;28;20389;-78
2021/04/18 11:13:44;;;;;;;18.42;16.52;;;;;;;;;;5033468;28;20388;-83
2021/04/18 11:16:10;;;;;;;17.98;16.23;;;;;;;;;;5046471;28;20941;-80
2021/04/18 11:18:36;;;;;;;17.55;15.82;;;;;;;;;;5030579;28;20400;-80
2021/04/18 11:21:02;;;;;;;17.00;15.30;;;;;;;;;;5029733;28;20404;-85
2021/04/18 11:23:29;;;;;;;18.15;16.35;;;;;;;;;;5048390;28;20740;-85
2021/04/18 11:25:55;;;;;;;17.80;16.03;;;;;;;;;;5033151;28;20377;-84
2021/04/18 11:28:21;;;;;;;17.60;15.90;;;;;;;;;;5031260;28;20383;-83
2021/04/18 11:30:48;;;;;;;16.30;14.80;;;;;;;;;;5027093;28;20377;-82
2021/04/18 11:33:14;;;;;;;16.80;15.10;;;;;;;;;;5031118;28;20380;-80
2021/04/18 11:35:40;;;;;;;19.25;17.33;;;;;;;;;;5032934;28;20970;-78
2021/04/18 11:38:06;;;;;;;19.95;17.95;;;;;;;;;;5032063;28;20747;-80
2021/04/18 11:40:32;;;;;;;20.15;18.10;;;;;;;;;;5032386;28;20381;-80
2021/04/18 11:42:58;;;;;;;19.73;17.83;;;;;;;;;;5028168;28;20415;-80
2021/04/18 11:45:24;;;;;;;18.87;17.07;;;;;;;;;;5029588;28;20447;-81
2021/04/18 11:47:50;;;;;;;19.27;17.47;;;;;;;;;;5032192;28;20393;-82
2021/04/18 11:50:17;;;;;;;18.97;17.27;;;;;;;;;;5039470;28;20487;-84
2021/04/18 11:52:43;;;;;;;18.05;16.42;;;;;;;;;;5031157;28;20756;-81
2021/04/18 11:55:10;;;;;;;18.67;16.77;;;;;;;;;;5032120;28;20380;-82
2021/04/18 11:57:37;;;;;;;19.52;17.73;;;;;;;;;;5032365;28;20374;-78
2021/04/18 12:00:07;;;;;;;19.88;18.05;;;;;;;;;;5029371;28;20415;-83
2021/04/18 12:02:33;;;;;;;20.05;17.95;;;;;;;;;;5032687;28;20377;-82
2021/04/18 12:05:00;;;;;;;20.20;18.35;;;;;;;;;;5030946;28;20377;-84
2021/04/18 12:07:26;;;;;;;20.58;18.73;;;;;;;;;;5032966;28;20373;-84
2021/04/18 12:09:52;;;;;;;19.97;17.97;;;;;;;;;;5031663;28;20393;-86
2021/04/18 12:12:19;;;;;;;19.60;17.70;;;;;;;;;;5028120;28;20381;-80
2021/04/18 12:14:46;;;;;;;19.55;17.65;;;;;;;;;;5045336;28;20377;-82
2021/04/18 12:17:12;;;;;;;18.98;17.17;;;;;;;;;;5043385;28;20387;-81
2021/04/18 12:19:38;;;;;;;18.77;17.07;;;;;;;;;;5028988;28;20517;-80
2021/04/18 12:22:04;;;;;;;18.10;16.40;;;;;;;;;;5031205;28;20377;-81
2021/04/18 12:24:30;;;;;;;17.92;16.30;;;;;;;;;;5047021;28;20405;-84
2021/04/18 12:26:56;;;;;;;17.58;15.90;;;;;;;;;;5046662;28;20866;-82
2021/04/18 12:29:22;;;;;;;16.25;14.75;;;;;;;;;;5047448;28;20373;-81
2021/04/18 12:31:48;;;;;;;17.20;15.50;;;;;;;;;;5027939;28;20950;-84
2021/04/18 12:34:16;;;;;;;14.77;13.38;;;;;;;;;;5025781;28;20400;-82
2021/04/18 12:36:42;;;;;;;14.55;13.20;;;;;;;;;;5027474;28;20509;-86
2021/04/18 12:39:09;;;;;;;15.18;13.68;;;;;;;;;;5026092;28;20495;-85
2021/04/18 12:41:36;;;;;;;14.30;12.90;;;;;;;;;;5029925;28;20381;-85
2021/04/18 12:44:02;;;;;;;14.95;13.57;;;;;;;;;;5024702;28;20377;-83
2021/04/18 12:46:28;;;;;;;14.23;12.93;;;;;;;;;;5023006;28;20841;-84
2021/04/18 12:48:54;;;;;;;13.85;12.60;;;;;;;;;;5022066;28;20377;-86
2021/04/18 12:51:20;;;;;;;13.60;12.30;;;;;;;;;;5022487;28;20365;-84
2021/04/18 12:53:46;;;;;;;12.98;11.68;;;;;;;;;;5013597;28;20379;-81
2021/04/18 12:56:12;;;;;;;13.27;12.00;;;;;;;;;;5018933;28;20385;-81
2021/04/18 12:58:40;;;;;;;13.80;12.40;;;;;;;;;;5046840;28;20389;-81
2021/04/18 13:01:06;;;;;;;12.95;11.75;;;;;;;;;;5031880;28;20377;-81
2021/04/18 13:03:32;;;;;;;12.75;11.48;;;;;;;;;;5031537;28;20366;-81
2021/04/18 13:05:58;;;;;;;12.77;11.68;;;;;;;;;;5031801;28;20460;-81
2021/04/18 13:08:24;;;;;;;13.30;12.10;;;;;;;;;;5046268;28;20876;-81
2021/04/18 13:10:50;;;;;;;12.32;11.23;;;;;;;;;;5031774;28;20385;-81
2021/04/18 13:13:17;;;;;;;12.70;11.50;;;;;;;;;;5031695;28;20427;-82
2021/04/18 13:15:45;;;;;;;12.88;11.68;;;;;;;;;;5031291;28;20396;-81
2021/04/18 13:18:11;;;;;;;12.73;11.50;;;;;;;;;;5030737;28;20369;-80
2021/04/18 13:20:38;;;;;;;12.23;11.07;;;;;;;;;;5030762;28;20453;-81
2021/04/18 13:23:04;;;;;;;12.57;11.48;;;;;;;;;;5046235;28;20820;-80
2021/04/18 13:25:31;;;;;;;11.95;10.85;;;;;;;;;;5046361;28;20373;-81
2021/04/18 13:27:57;;;;;;;13.23;11.93;;;;;;;;;;5030104;28;20369;-81
2021/04/18 13:30:23;;;;;;;13.35;11.85;;;;;;;;;;5046195;28;20804;-81
2021/04/18 13:32:51;;;;;;;13.05;11.77;;;;;;;;;;5030452;28;20427;-81
2021/04/18 13:35:18;;;;;;;13.18;11.88;;;;;;;;;;5029799;28;20373;-81
2021/04/18 13:37:44;;;;;;;12.35;11.23;;;;;;;;;;5046388;28;20852;-81
2021/04/18 13:40:11;;;;;;;12.75;11.57;;;;;;;;;;5029741;28;20405;-81
2021/04/18 13:42:37;;;;;;;13.10;11.63;;;;;;;;;;5030630;28;20373;-82
2021/04/18 13:45:05;;;;;;;13.65;12.27;;;;;;;;;;5030411;28;20370;-82
2021/04/18 13:47:31;;;;;;;13.02;11.82;;;;;;;;;;5030243;28;21095;-84
2021/04/18 13:49:57;;;;;;;13.50;12.20;;;;;;;;;;5027866;28;20890;-85
2021/04/18 13:52:24;;;;;;;12.90;11.60;;;;;;;;;;5029467;28;20385;-83
2021/04/18 13:54:50;;;;;;;13.00;11.67;;;;;;;;;;5030527;28;20519;-80
2021/04/18 13:57:16;;;;;;;13.75;12.40;;;;;;;;;;5027553;28;20452;-80
2021/04/18 13:59:45;;;;;;;13.27;12.07;;;;;;;;;;5044798;28;20488;-83
2021/04/18 14:02:11;;;;;;;13.30;12.07;;;;;;;;;;5029145;28;20736;-83
2021/04/18 14:04:37;;;;;;;12.75;11.65;;;;;;;;;;5027944;28;20455;-84
2021/04/18 14:07:03;;;;;;;13.43;12.13;;;;;;;;;;5030552;28;20381;-81
2021/04/18 14:09:29;;;;;;;12.85;11.55;;;;;;;;;;5031033;28;20389;-81
2021/04/18 14:11:55;;;;;;;12.80;11.50;;;;;;;;;;5027346;28;20405;-84
2021/04/18 14:14:21;;;;;;;11.95;10.85;;;;;;;;;;5020894;28;20394;-82
2021/04/18 14:16:48;;;;;;;13.35;12.05;;;;;;;;;;5024450;28;20835;-84